sensor_id;sensor_type;location;lat;lon;timestamp;P1;durP1;ratioP1;P2;durP2;ratioP2
62572;SDS011;48626;51.678;5.806;2023-07-31T00:00:14;22.33;;;9.02;;
62572;SDS011;48626;51.678;5.806;2023-07-31T00:02:41;29.02;;;9.45;;
62572;SDS011;48626;51.678;5.806;2023-07-31T00:05:07;27.05;;;9.25;;
62572;SDS011;48626;51.678;5.806;2023-07-31T00:07:33;31.05;;;10.10;;
62572;SDS011;48626;51.678;5.806;2023-07-31T00:09:59;29.55;;;11.27;;
62572;SDS011;48626;51.678;5.806;2023-07-31T00:12:25;31.33;;;10.40;;
62572;SDS011;48626;51.678;5.806;2023-07-31T00:14:50;26.65;;;10.07;;
62572;SDS011;48626;51.678;5.806;2023-07-31T00:17:16;29.30;;;10.68;;
62572;SDS011;48626;51.678;5.806;2023-07-31T00:19:42;29.20;;;9.60;;
62572;SDS011;48626;51.678;5.806;2023-07-31T00:22:08;29.10;;;9.95;;
62572;SDS011;48626;51.678;5.806;2023-07-31T00:24:34;28.23;;;10.13;;
62572;SDS011;48626;51.678;5.806;2023-07-31T00:26:59;27.13;;;9.90;;
62572;SDS011;48626;51.678;5.806;2023-07-31T00:29:25;33.20;;;9.73;;
62572;SDS011;48626;51.678;5.806;2023-07-31T00:31:51;28.83;;;9.75;;
62572;SDS011;48626;51.678;5.806;2023-07-31T00:34:16;28.45;;;9.23;;
62572;SDS011;48626;51.678;5.806;2023-07-31T00:36:46;28.13;;;8.50;;
62572;SDS011;48626;51.678;5.806;2023-07-31T00:39:11;26.10;;;8.70;;
62572;SDS011;48626;51.678;5.806;2023-07-31T00:41:37;26.27;;;9.15;;
62572;SDS011;48626;51.678;5.806;2023-07-31T00:44:03;27.15;;;8.75;;
62572;SDS011;48626;51.678;5.806;2023-07-31T00:46:28;23.85;;;8.35;;
62572;SDS011;48626;51.678;5.806;2023-07-31T00:48:54;22.23;;;8.20;;
62572;SDS011;48626;51.678;5.806;2023-07-31T00:51:20;24.77;;;8.32;;
62572;SDS011;48626;51.678;5.806;2023-07-31T00:53:46;22.95;;;8.20;;
62572;SDS011;48626;51.678;5.806;2023-07-31T00:56:12;22.42;;;8.02;;
62572;SDS011;48626;51.678;5.806;2023-07-31T01:01:43;29.60;;;7.85;;
62572;SDS011;48626;51.678;5.806;2023-07-31T01:04:09;22.05;;;8.30;;
62572;SDS011;48626;51.678;5.806;2023-07-31T01:06:48;21.35;;;7.45;;
62572;SDS011;48626;51.678;5.806;2023-07-31T01:13:03;24.10;;;7.57;;
62572;SDS011;48626;51.678;5.806;2023-07-31T01:18:58;17.65;;;6.65;;
62572;SDS011;48626;51.678;5.806;2023-07-31T01:30:21;20.23;;;6.70;;
62572;SDS011;48626;51.678;5.806;2023-07-31T01:32:51;24.95;;;7.43;;
62572;SDS011;48626;51.678;5.806;2023-07-31T01:38:08;19.98;;;6.43;;
62572;SDS011;48626;51.678;5.806;2023-07-31T01:40:34;26.00;;;6.90;;
62572;SDS011;48626;51.678;5.806;2023-07-31T01:42:59;22.73;;;6.60;;
62572;SDS011;48626;51.678;5.806;2023-07-31T01:45:25;23.85;;;6.75;;
62572;SDS011;48626;51.678;5.806;2023-07-31T01:47:51;24.13;;;6.82;;
62572;SDS011;48626;51.678;5.806;2023-07-31T01:50:17;18.42;;;6.30;;
62572;SDS011;48626;51.678;5.806;2023-07-31T01:52:42;18.75;;;6.28;;
62572;SDS011;48626;51.678;5.806;2023-07-31T01:55:20;19.77;;;6.03;;
62572;SDS011;48626;51.678;5.806;2023-07-31T01:57:46;23.40;;;6.97;;
62572;SDS011;48626;51.678;5.806;2023-07-31T02:00:11;20.58;;;6.25;;
62572;SDS011;48626;51.678;5.806;2023-07-31T02:02:37;17.65;;;6.07;;
62572;SDS011;48626;51.678;5.806;2023-07-31T02:05:03;23.30;;;7.28;;
62572;SDS011;48626;51.678;5.806;2023-07-31T02:07:29;20.30;;;5.93;;
62572;SDS011;48626;51.678;5.806;2023-07-31T02:09:54;24.83;;;6.03;;
62572;SDS011;48626;51.678;5.806;2023-07-31T02:12:20;22.83;;;6.00;;
62572;SDS011;48626;51.678;5.806;2023-07-31T02:14:46;26.90;;;6.68;;
62572;SDS011;48626;51.678;5.806;2023-07-31T02:17:11;24.85;;;6.72;;
62572;SDS011;48626;51.678;5.806;2023-07-31T02:19:37;20.58;;;6.40;;
62572;SDS011;48626;51.678;5.806;2023-07-31T02:22:02;22.50;;;7.00;;
62572;SDS011;48626;51.678;5.806;2023-07-31T02:24:28;22.02;;;5.93;;
62572;SDS011;48626;51.678;5.806;2023-07-31T02:26:54;21.05;;;6.18;;
62572;SDS011;48626;51.678;5.806;2023-07-31T02:29:19;28.80;;;6.95;;
62572;SDS011;48626;51.678;5.806;2023-07-31T02:31:45;23.75;;;6.43;;
62572;SDS011;48626;51.678;5.806;2023-07-31T02:34:11;26.50;;;6.72;;
62572;SDS011;48626;51.678;5.806;2023-07-31T02:36:36;23.50;;;6.47;;
62572;SDS011;48626;51.678;5.806;2023-07-31T02:39:02;21.58;;;6.88;;
62572;SDS011;48626;51.678;5.806;2023-07-31T02:41:27;21.20;;;6.60;;
62572;SDS011;48626;51.678;5.806;2023-07-31T02:43:53;22.35;;;6.72;;
62572;SDS011;48626;51.678;5.806;2023-07-31T02:46:19;23.73;;;6.90;;
62572;SDS011;48626;51.678;5.806;2023-07-31T02:48:45;24.58;;;6.95;;
62572;SDS011;48626;51.678;5.806;2023-07-31T02:51:11;20.17;;;6.43;;
62572;SDS011;48626;51.678;5.806;2023-07-31T02:53:36;22.10;;;6.80;;
62572;SDS011;48626;51.678;5.806;2023-07-31T02:56:02;38.65;;;7.38;;
62572;SDS011;48626;51.678;5.806;2023-07-31T02:58:28;25.83;;;7.72;;
62572;SDS011;48626;51.678;5.806;2023-07-31T03:00:53;27.02;;;6.72;;
62572;SDS011;48626;51.678;5.806;2023-07-31T03:03:19;25.80;;;7.18;;
62572;SDS011;48626;51.678;5.806;2023-07-31T03:05:44;23.88;;;7.32;;
62572;SDS011;48626;51.678;5.806;2023-07-31T03:08:10;17.20;;;6.35;;
62572;SDS011;48626;51.678;5.806;2023-07-31T03:10:36;19.20;;;6.35;;
62572;SDS011;48626;51.678;5.806;2023-07-31T03:13:01;28.17;;;6.85;;
62572;SDS011;48626;51.678;5.806;2023-07-31T03:15:27;19.08;;;6.20;;
62572;SDS011;48626;51.678;5.806;2023-07-31T03:17:52;22.00;;;6.85;;
62572;SDS011;48626;51.678;5.806;2023-07-31T03:20:18;22.58;;;7.70;;
62572;SDS011;48626;51.678;5.806;2023-07-31T03:22:44;25.10;;;6.93;;
62572;SDS011;48626;51.678;5.806;2023-07-31T03:25:09;20.38;;;6.80;;
62572;SDS011;48626;51.678;5.806;2023-07-31T03:27:35;20.05;;;6.30;;
62572;SDS011;48626;51.678;5.806;2023-07-31T03:30:02;23.70;;;7.38;;
62572;SDS011;48626;51.678;5.806;2023-07-31T03:32:28;19.23;;;6.35;;
62572;SDS011;48626;51.678;5.806;2023-07-31T03:34:53;26.40;;;7.38;;
62572;SDS011;48626;51.678;5.806;2023-07-31T03:37:19;27.88;;;7.70;;
62572;SDS011;48626;51.678;5.806;2023-07-31T03:39:45;22.00;;;6.90;;
62572;SDS011;48626;51.678;5.806;2023-07-31T03:42:10;20.08;;;6.15;;
62572;SDS011;48626;51.678;5.806;2023-07-31T03:44:36;24.13;;;7.00;;
62572;SDS011;48626;51.678;5.806;2023-07-31T03:47:02;20.90;;;6.45;;
62572;SDS011;48626;51.678;5.806;2023-07-31T03:49:27;27.55;;;7.15;;
62572;SDS011;48626;51.678;5.806;2023-07-31T03:51:53;30.42;;;6.75;;
62572;SDS011;48626;51.678;5.806;2023-07-31T03:54:19;21.48;;;6.68;;
62572;SDS011;48626;51.678;5.806;2023-07-31T03:56:44;21.88;;;6.10;;
62572;SDS011;48626;51.678;5.806;2023-07-31T03:59:10;22.17;;;7.05;;
62572;SDS011;48626;51.678;5.806;2023-07-31T04:01:36;24.92;;;6.43;;
62572;SDS011;48626;51.678;5.806;2023-07-31T04:04:01;22.23;;;7.15;;
62572;SDS011;48626;51.678;5.806;2023-07-31T04:06:27;22.08;;;6.18;;
62572;SDS011;48626;51.678;5.806;2023-07-31T04:08:52;25.10;;;6.45;;
62572;SDS011;48626;51.678;5.806;2023-07-31T04:11:18;21.88;;;6.82;;
62572;SDS011;48626;51.678;5.806;2023-07-31T04:13:44;24.45;;;6.55;;
62572;SDS011;48626;51.678;5.806;2023-07-31T04:16:09;19.52;;;6.20;;
62572;SDS011;48626;51.678;5.806;2023-07-31T04:18:35;20.88;;;6.03;;
62572;SDS011;48626;51.678;5.806;2023-07-31T04:21:01;22.48;;;6.28;;
62572;SDS011;48626;51.678;5.806;2023-07-31T04:23:27;23.00;;;6.45;;
62572;SDS011;48626;51.678;5.806;2023-07-31T04:25:53;28.95;;;6.32;;
62572;SDS011;48626;51.678;5.806;2023-07-31T04:28:18;18.33;;;6.15;;
62572;SDS011;48626;51.678;5.806;2023-07-31T04:30:44;27.63;;;6.22;;
62572;SDS011;48626;51.678;5.806;2023-07-31T04:33:10;27.20;;;6.60;;
62572;SDS011;48626;51.678;5.806;2023-07-31T04:35:35;20.15;;;6.13;;
62572;SDS011;48626;51.678;5.806;2023-07-31T04:38:01;23.40;;;6.07;;
62572;SDS011;48626;51.678;5.806;2023-07-31T04:40:27;22.30;;;5.78;;
62572;SDS011;48626;51.678;5.806;2023-07-31T04:42:52;22.27;;;6.18;;
62572;SDS011;48626;51.678;5.806;2023-07-31T04:45:18;15.38;;;5.63;;
62572;SDS011;48626;51.678;5.806;2023-07-31T04:47:43;20.95;;;6.00;;
62572;SDS011;48626;51.678;5.806;2023-07-31T04:50:09;21.15;;;6.45;;
62572;SDS011;48626;51.678;5.806;2023-07-31T04:52:35;17.73;;;6.10;;
62572;SDS011;48626;51.678;5.806;2023-07-31T04:55:01;24.10;;;5.72;;
62572;SDS011;48626;51.678;5.806;2023-07-31T04:57:26;19.27;;;5.70;;
62572;SDS011;48626;51.678;5.806;2023-07-31T04:59:52;16.20;;;5.38;;
62572;SDS011;48626;51.678;5.806;2023-07-31T05:02:17;24.35;;;6.35;;
62572;SDS011;48626;51.678;5.806;2023-07-31T05:04:43;22.33;;;6.43;;
62572;SDS011;48626;51.678;5.806;2023-07-31T05:07:09;19.27;;;6.45;;
62572;SDS011;48626;51.678;5.806;2023-07-31T05:09:34;21.05;;;5.78;;
62572;SDS011;48626;51.678;5.806;2023-07-31T05:12:00;19.45;;;6.20;;
62572;SDS011;48626;51.678;5.806;2023-07-31T05:14:26;16.70;;;5.45;;
62572;SDS011;48626;51.678;5.806;2023-07-31T05:16:51;18.25;;;5.45;;
62572;SDS011;48626;51.678;5.806;2023-07-31T05:19:17;18.80;;;6.00;;
62572;SDS011;48626;51.678;5.806;2023-07-31T05:21:43;18.67;;;5.72;;
62572;SDS011;48626;51.678;5.806;2023-07-31T05:24:09;18.63;;;5.43;;
62572;SDS011;48626;51.678;5.806;2023-07-31T05:26:35;17.65;;;5.80;;
62572;SDS011;48626;51.678;5.806;2023-07-31T05:29:01;18.83;;;6.00;;
62572;SDS011;48626;51.678;5.806;2023-07-31T05:31:27;19.10;;;5.32;;
62572;SDS011;48626;51.678;5.806;2023-07-31T05:33:53;15.18;;;5.85;;
62572;SDS011;48626;51.678;5.806;2023-07-31T05:36:19;20.27;;;6.03;;
62572;SDS011;48626;51.678;5.806;2023-07-31T05:38:44;23.65;;;6.07;;
62572;SDS011;48626;51.678;5.806;2023-07-31T05:41:13;28.83;;;6.25;;
62572;SDS011;48626;51.678;5.806;2023-07-31T05:43:39;17.20;;;6.03;;
62572;SDS011;48626;51.678;5.806;2023-07-31T06:02:14;15.25;;;6.10;;
62572;SDS011;48626;51.678;5.806;2023-07-31T06:04:39;18.95;;;6.05;;
62572;SDS011;48626;51.678;5.806;2023-07-31T06:07:05;16.00;;;5.72;;
62572;SDS011;48626;51.678;5.806;2023-07-31T06:09:30;22.02;;;6.20;;
62572;SDS011;48626;51.678;5.806;2023-07-31T06:11:56;11.95;;;5.30;;
62572;SDS011;48626;51.678;5.806;2023-07-31T06:14:22;13.05;;;4.75;;
62572;SDS011;48626;51.678;5.806;2023-07-31T06:16:47;11.57;;;4.80;;
62572;SDS011;48626;51.678;5.806;2023-07-31T06:19:13;10.98;;;4.05;;
62572;SDS011;48626;51.678;5.806;2023-07-31T06:21:39;8.68;;;4.43;;
62572;SDS011;48626;51.678;5.806;2023-07-31T06:24:07;9.77;;;4.22;;
62572;SDS011;48626;51.678;5.806;2023-07-31T06:26:32;12.20;;;4.55;;
62572;SDS011;48626;51.678;5.806;2023-07-31T06:28:58;7.45;;;4.05;;
62572;SDS011;48626;51.678;5.806;2023-07-31T06:31:23;15.10;;;4.30;;
62572;SDS011;48626;51.678;5.806;2023-07-31T06:33:50;9.40;;;4.03;;
62572;SDS011;48626;51.678;5.806;2023-07-31T06:36:16;7.30;;;3.80;;
62572;SDS011;48626;51.678;5.806;2023-07-31T06:38:42;6.90;;;3.70;;
62572;SDS011;48626;51.678;5.806;2023-07-31T06:41:08;7.93;;;4.10;;
62572;SDS011;48626;51.678;5.806;2023-07-31T06:43:34;6.65;;;3.70;;
62572;SDS011;48626;51.678;5.806;2023-07-31T06:46:04;9.50;;;4.13;;
62572;SDS011;48626;51.678;5.806;2023-07-31T06:48:33;8.30;;;3.63;;
62572;SDS011;48626;51.678;5.806;2023-07-31T06:50:59;7.15;;;3.53;;
62572;SDS011;48626;51.678;5.806;2023-07-31T06:53:26;5.55;;;3.50;;
62572;SDS011;48626;51.678;5.806;2023-07-31T06:55:51;6.60;;;3.47;;
62572;SDS011;48626;51.678;5.806;2023-07-31T06:58:17;6.57;;;3.42;;
62572;SDS011;48626;51.678;5.806;2023-07-31T07:00:43;7.32;;;3.60;;
62572;SDS011;48626;51.678;5.806;2023-07-31T07:03:09;8.30;;;3.42;;
62572;SDS011;48626;51.678;5.806;2023-07-31T07:05:34;5.82;;;3.80;;
62572;SDS011;48626;51.678;5.806;2023-07-31T07:08:00;6.47;;;3.72;;
62572;SDS011;48626;51.678;5.806;2023-07-31T07:10:26;5.47;;;3.50;;
62572;SDS011;48626;51.678;5.806;2023-07-31T07:12:52;5.53;;;3.53;;
62572;SDS011;48626;51.678;5.806;2023-07-31T07:15:18;7.60;;;3.83;;
62572;SDS011;48626;51.678;5.806;2023-07-31T07:17:44;6.10;;;3.80;;
62572;SDS011;48626;51.678;5.806;2023-07-31T07:20:09;8.35;;;4.00;;
62572;SDS011;48626;51.678;5.806;2023-07-31T07:22:35;6.75;;;3.70;;
62572;SDS011;48626;51.678;5.806;2023-07-31T07:25:01;8.20;;;3.90;;
62572;SDS011;48626;51.678;5.806;2023-07-31T07:27:27;5.78;;;3.60;;
62572;SDS011;48626;51.678;5.806;2023-07-31T07:29:52;6.05;;;3.75;;
62572;SDS011;48626;51.678;5.806;2023-07-31T07:32:18;6.47;;;3.60;;
62572;SDS011;48626;51.678;5.806;2023-07-31T07:34:44;6.43;;;3.50;;
62572;SDS011;48626;51.678;5.806;2023-07-31T07:37:10;6.25;;;3.55;;
62572;SDS011;48626;51.678;5.806;2023-07-31T07:39:36;6.65;;;3.58;;
62572;SDS011;48626;51.678;5.806;2023-07-31T07:42:03;5.05;;;3.45;;
62572;SDS011;48626;51.678;5.806;2023-07-31T07:44:28;7.20;;;3.60;;
62572;SDS011;48626;51.678;5.806;2023-07-31T07:46:54;6.32;;;3.75;;
62572;SDS011;48626;51.678;5.806;2023-07-31T07:49:20;12.95;;;3.83;;
62572;SDS011;48626;51.678;5.806;2023-07-31T07:51:47;5.47;;;3.60;;
62572;SDS011;48626;51.678;5.806;2023-07-31T07:54:14;7.00;;;3.60;;
62572;SDS011;48626;51.678;5.806;2023-07-31T07:56:39;5.30;;;3.47;;
62572;SDS011;48626;51.678;5.806;2023-07-31T07:59:05;7.45;;;3.63;;
62572;SDS011;48626;51.678;5.806;2023-07-31T08:01:31;7.28;;;3.45;;
62572;SDS011;48626;51.678;5.806;2023-07-31T08:03:57;6.90;;;3.50;;
62572;SDS011;48626;51.678;5.806;2023-07-31T08:06:23;7.68;;;3.63;;
62572;SDS011;48626;51.678;5.806;2023-07-31T08:08:49;6.30;;;3.50;;
62572;SDS011;48626;51.678;5.806;2023-07-31T08:11:14;6.07;;;3.35;;
62572;SDS011;48626;51.678;5.806;2023-07-31T08:13:40;6.78;;;3.25;;
62572;SDS011;48626;51.678;5.806;2023-07-31T08:19:30;7.35;;;3.58;;
62572;SDS011;48626;51.678;5.806;2023-07-31T08:21:55;5.82;;;3.80;;
62572;SDS011;48626;51.678;5.806;2023-07-31T08:24:21;9.48;;;4.30;;
62572;SDS011;48626;51.678;5.806;2023-07-31T08:26:47;7.20;;;4.15;;
62572;SDS011;48626;51.678;5.806;2023-07-31T08:29:13;8.07;;;4.05;;
62572;SDS011;48626;51.678;5.806;2023-07-31T08:31:39;7.68;;;4.10;;
62572;SDS011;48626;51.678;5.806;2023-07-31T08:34:04;13.68;;;4.30;;
62572;SDS011;48626;51.678;5.806;2023-07-31T08:36:30;10.13;;;4.30;;
62572;SDS011;48626;51.678;5.806;2023-07-31T08:38:55;10.95;;;4.38;;
62572;SDS011;48626;51.678;5.806;2023-07-31T08:41:21;8.05;;;3.92;;
62572;SDS011;48626;51.678;5.806;2023-07-31T08:43:47;6.85;;;4.15;;
62572;SDS011;48626;51.678;5.806;2023-07-31T08:46:14;11.27;;;4.53;;
62572;SDS011;48626;51.678;5.806;2023-07-31T08:48:41;11.10;;;5.32;;
62572;SDS011;48626;51.678;5.806;2023-07-31T08:51:07;7.75;;;4.13;;
62572;SDS011;48626;51.678;5.806;2023-07-31T08:53:33;9.68;;;4.30;;
62572;SDS011;48626;51.678;5.806;2023-07-31T08:55:59;7.35;;;4.15;;
62572;SDS011;48626;51.678;5.806;2023-07-31T08:58:27;8.90;;;4.10;;
62572;SDS011;48626;51.678;5.806;2023-07-31T09:00:57;6.63;;;4.20;;
62572;SDS011;48626;51.678;5.806;2023-07-31T09:03:25;8.52;;;4.20;;
62572;SDS011;48626;51.678;5.806;2023-07-31T09:05:51;6.75;;;4.10;;
62572;SDS011;48626;51.678;5.806;2023-07-31T09:08:19;7.15;;;4.40;;
62572;SDS011;48626;51.678;5.806;2023-07-31T09:10:46;9.38;;;4.47;;
62572;SDS011;48626;51.678;5.806;2023-07-31T09:13:14;9.27;;;4.40;;
62572;SDS011;48626;51.678;5.806;2023-07-31T09:15:43;14.45;;;4.25;;
62572;SDS011;48626;51.678;5.806;2023-07-31T09:18:10;8.60;;;4.15;;
62572;SDS011;48626;51.678;5.806;2023-07-31T09:20:36;8.20;;;4.60;;
62572;SDS011;48626;51.678;5.806;2023-07-31T09:23:06;8.20;;;4.32;;
62572;SDS011;48626;51.678;5.806;2023-07-31T09:25:36;10.43;;;4.57;;
62572;SDS011;48626;51.678;5.806;2023-07-31T09:28:03;8.45;;;4.85;;
62572;SDS011;48626;51.678;5.806;2023-07-31T09:30:31;9.05;;;5.50;;
62572;SDS011;48626;51.678;5.806;2023-07-31T09:33:09;11.27;;;5.43;;
62572;SDS011;48626;51.678;5.806;2023-07-31T09:35:35;10.18;;;5.18;;
62572;SDS011;48626;51.678;5.806;2023-07-31T09:38:03;9.85;;;5.07;;
62572;SDS011;48626;51.678;5.806;2023-07-31T09:40:32;11.80;;;6.10;;
62572;SDS011;48626;51.678;5.806;2023-07-31T09:43:12;15.73;;;5.90;;
62572;SDS011;48626;51.678;5.806;2023-07-31T09:49:04;12.10;;;5.82;;
62572;SDS011;48626;51.678;5.806;2023-07-31T09:51:37;12.55;;;6.07;;
62572;SDS011;48626;51.678;5.806;2023-07-31T09:54:08;16.70;;;6.63;;
62572;SDS011;48626;51.678;5.806;2023-07-31T09:56:48;11.55;;;6.28;;
62572;SDS011;48626;51.678;5.806;2023-07-31T09:59:15;14.40;;;6.22;;
62572;SDS011;48626;51.678;5.806;2023-07-31T10:01:42;17.75;;;6.18;;
62572;SDS011;48626;51.678;5.806;2023-07-31T10:04:11;15.93;;;5.90;;
62572;SDS011;48626;51.678;5.806;2023-07-31T10:06:38;9.65;;;5.95;;
62572;SDS011;48626;51.678;5.806;2023-07-31T10:09:05;17.17;;;6.78;;
62572;SDS011;48626;51.678;5.806;2023-07-31T10:11:41;11.82;;;6.28;;
62572;SDS011;48626;51.678;5.806;2023-07-31T10:14:09;12.75;;;5.82;;
62572;SDS011;48626;51.678;5.806;2023-07-31T10:16:37;14.55;;;6.32;;
62572;SDS011;48626;51.678;5.806;2023-07-31T10:19:03;18.48;;;6.38;;
62572;SDS011;48626;51.678;5.806;2023-07-31T10:21:30;11.18;;;5.95;;
62572;SDS011;48626;51.678;5.806;2023-07-31T10:23:59;14.93;;;6.50;;
62572;SDS011;48626;51.678;5.806;2023-07-31T10:26:27;13.30;;;6.10;;
62572;SDS011;48626;51.678;5.806;2023-07-31T10:28:54;12.23;;;5.75;;
62572;SDS011;48626;51.678;5.806;2023-07-31T10:31:21;16.15;;;6.07;;
62572;SDS011;48626;51.678;5.806;2023-07-31T10:33:47;14.60;;;6.00;;
62572;SDS011;48626;51.678;5.806;2023-07-31T10:36:14;11.40;;;6.00;;
62572;SDS011;48626;51.678;5.806;2023-07-31T10:38:42;11.53;;;6.23;;
62572;SDS011;48626;51.678;5.806;2023-07-31T10:41:11;14.15;;;5.88;;
62572;SDS011;48626;51.678;5.806;2023-07-31T10:43:37;13.18;;;5.88;;
62572;SDS011;48626;51.678;5.806;2023-07-31T10:46:11;11.95;;;5.75;;
62572;SDS011;48626;51.678;5.806;2023-07-31T10:48:38;12.80;;;5.85;;
62572;SDS011;48626;51.678;5.806;2023-07-31T10:51:09;11.65;;;5.63;;
62572;SDS011;48626;51.678;5.806;2023-07-31T10:53:37;14.60;;;5.22;;
62572;SDS011;48626;51.678;5.806;2023-07-31T10:56:07;11.45;;;5.50;;
62572;SDS011;48626;51.678;5.806;2023-07-31T10:58:34;12.95;;;5.25;;
62572;SDS011;48626;51.678;5.806;2023-07-31T11:01:02;11.80;;;5.07;;
62572;SDS011;48626;51.678;5.806;2023-07-31T11:06:10;11.57;;;5.20;;
62572;SDS011;48626;51.678;5.806;2023-07-31T11:08:46;15.05;;;5.63;;
62572;SDS011;48626;51.678;5.806;2023-07-31T11:11:16;11.02;;;5.35;;
62572;SDS011;48626;51.678;5.806;2023-07-31T11:16:17;11.90;;;5.07;;
62572;SDS011;48626;51.678;5.806;2023-07-31T11:18:45;13.68;;;5.50;;
62572;SDS011;48626;51.678;5.806;2023-07-31T11:21:15;12.82;;;4.90;;
62572;SDS011;48626;51.678;5.806;2023-07-31T11:23:49;15.75;;;5.65;;
62572;SDS011;48626;51.678;5.806;2023-07-31T11:26:16;10.43;;;5.32;;
62572;SDS011;48626;51.678;5.806;2023-07-31T11:28:43;10.00;;;5.60;;
62572;SDS011;48626;51.678;5.806;2023-07-31T11:31:11;13.10;;;5.60;;
62572;SDS011;48626;51.678;5.806;2023-07-31T11:33:37;11.63;;;5.32;;
62572;SDS011;48626;51.678;5.806;2023-07-31T11:36:02;12.88;;;5.30;;
62572;SDS011;48626;51.678;5.806;2023-07-31T11:38:33;7.80;;;5.25;;
62572;SDS011;48626;51.678;5.806;2023-07-31T11:43:27;11.52;;;5.40;;
62572;SDS011;48626;51.678;5.806;2023-07-31T11:45:55;15.73;;;5.45;;
62572;SDS011;48626;51.678;5.806;2023-07-31T11:48:22;15.45;;;5.28;;
62572;SDS011;48626;51.678;5.806;2023-07-31T11:50:53;13.68;;;5.80;;
62572;SDS011;48626;51.678;5.806;2023-07-31T11:56:10;12.20;;;5.10;;
62572;SDS011;48626;51.678;5.806;2023-07-31T11:58:39;10.20;;;5.50;;
62572;SDS011;48626;51.678;5.806;2023-07-31T12:01:08;12.60;;;5.10;;
62572;SDS011;48626;51.678;5.806;2023-07-31T12:03:34;10.68;;;5.32;;
62572;SDS011;48626;51.678;5.806;2023-07-31T12:06:00;9.18;;;4.65;;
62572;SDS011;48626;51.678;5.806;2023-07-31T12:08:26;10.50;;;5.43;;
62572;SDS011;48626;51.678;5.806;2023-07-31T12:10:52;10.85;;;5.32;;
62572;SDS011;48626;51.678;5.806;2023-07-31T12:13:23;12.57;;;5.38;;
62572;SDS011;48626;51.678;5.806;2023-07-31T12:15:54;13.75;;;5.18;;
62572;SDS011;48626;51.678;5.806;2023-07-31T12:18:22;9.35;;;5.18;;
62572;SDS011;48626;51.678;5.806;2023-07-31T12:20:49;8.23;;;4.90;;
62572;SDS011;48626;51.678;5.806;2023-07-31T12:23:21;6.93;;;4.55;;
62572;SDS011;48626;51.678;5.806;2023-07-31T12:28:34;8.05;;;4.40;;
62572;SDS011;48626;51.678;5.806;2023-07-31T12:31:06;7.18;;;4.40;;
62572;SDS011;48626;51.678;5.806;2023-07-31T12:33:32;7.85;;;4.15;;
62572;SDS011;48626;51.678;5.806;2023-07-31T12:36:01;11.82;;;4.60;;
62572;SDS011;48626;51.678;5.806;2023-07-31T12:38:27;9.07;;;4.28;;
62572;SDS011;48626;51.678;5.806;2023-07-31T12:40:53;7.38;;;4.38;;
62572;SDS011;48626;51.678;5.806;2023-07-31T12:43:19;9.73;;;4.55;;
62572;SDS011;48626;51.678;5.806;2023-07-31T12:45:44;6.93;;;4.38;;
62572;SDS011;48626;51.678;5.806;2023-07-31T12:48:10;7.38;;;4.50;;
62572;SDS011;48626;51.678;5.806;2023-07-31T12:50:36;10.77;;;4.63;;
62572;SDS011;48626;51.678;5.806;2023-07-31T12:53:02;9.93;;;4.68;;
62572;SDS011;48626;51.678;5.806;2023-07-31T12:55:30;8.75;;;4.80;;
62572;SDS011;48626;51.678;5.806;2023-07-31T12:57:57;11.25;;;5.53;;
62572;SDS011;48626;51.678;5.806;2023-07-31T13:00:23;7.50;;;4.32;;
62572;SDS011;48626;51.678;5.806;2023-07-31T13:02:50;13.75;;;4.90;;
62572;SDS011;48626;51.678;5.806;2023-07-31T13:05:16;7.88;;;4.72;;
62572;SDS011;48626;51.678;5.806;2023-07-31T13:07:42;13.60;;;5.20;;
62572;SDS011;48626;51.678;5.806;2023-07-31T13:10:08;8.57;;;5.03;;
62572;SDS011;48626;51.678;5.806;2023-07-31T13:12:34;11.95;;;5.13;;
62572;SDS011;48626;51.678;5.806;2023-07-31T13:14:59;15.77;;;5.38;;
62572;SDS011;48626;51.678;5.806;2023-07-31T13:17:25;8.60;;;4.80;;
62572;SDS011;48626;51.678;5.806;2023-07-31T13:19:51;9.93;;;4.88;;
62572;SDS011;48626;51.678;5.806;2023-07-31T13:22:17;10.35;;;5.10;;
62572;SDS011;48626;51.678;5.806;2023-07-31T13:24:43;9.98;;;5.40;;
62572;SDS011;48626;51.678;5.806;2023-07-31T13:27:08;13.05;;;4.90;;
62572;SDS011;48626;51.678;5.806;2023-07-31T13:29:34;11.02;;;5.30;;
62572;SDS011;48626;51.678;5.806;2023-07-31T13:32:00;10.18;;;5.32;;
62572;SDS011;48626;51.678;5.806;2023-07-31T13:34:25;11.85;;;5.80;;
62572;SDS011;48626;51.678;5.806;2023-07-31T13:36:51;9.95;;;5.20;;
62572;SDS011;48626;51.678;5.806;2023-07-31T13:39:18;12.05;;;5.13;;
62572;SDS011;48626;51.678;5.806;2023-07-31T13:41:44;10.98;;;5.80;;
62572;SDS011;48626;51.678;5.806;2023-07-31T13:44:09;10.82;;;5.50;;
62572;SDS011;48626;51.678;5.806;2023-07-31T13:46:35;14.68;;;5.93;;
62572;SDS011;48626;51.678;5.806;2023-07-31T13:49:01;14.05;;;6.03;;
62572;SDS011;48626;51.678;5.806;2023-07-31T13:51:26;10.77;;;6.20;;
62572;SDS011;48626;51.678;5.806;2023-07-31T13:53:53;12.30;;;5.93;;
62572;SDS011;48626;51.678;5.806;2023-07-31T13:56:19;11.80;;;5.90;;
62572;SDS011;48626;51.678;5.806;2023-07-31T13:58:44;11.40;;;6.15;;
62572;SDS011;48626;51.678;5.806;2023-07-31T14:01:10;14.88;;;5.65;;
62572;SDS011;48626;51.678;5.806;2023-07-31T14:03:35;16.15;;;5.93;;
62572;SDS011;48626;51.678;5.806;2023-07-31T14:06:01;17.52;;;6.22;;
62572;SDS011;48626;51.678;5.806;2023-07-31T14:08:27;12.93;;;5.97;;
62572;SDS011;48626;51.678;5.806;2023-07-31T14:10:54;13.45;;;6.03;;
62572;SDS011;48626;51.678;5.806;2023-07-31T14:13:20;13.60;;;6.35;;
62572;SDS011;48626;51.678;5.806;2023-07-31T14:15:46;12.77;;;5.80;;
62572;SDS011;48626;51.678;5.806;2023-07-31T14:18:11;11.82;;;5.68;;
62572;SDS011;48626;51.678;5.806;2023-07-31T14:20:37;14.75;;;6.22;;
62572;SDS011;48626;51.678;5.806;2023-07-31T14:23:03;13.48;;;6.15;;
62572;SDS011;48626;51.678;5.806;2023-07-31T14:25:29;15.10;;;6.13;;
62572;SDS011;48626;51.678;5.806;2023-07-31T14:27:54;13.13;;;6.32;;
62572;SDS011;48626;51.678;5.806;2023-07-31T14:30:20;15.50;;;6.28;;
62572;SDS011;48626;51.678;5.806;2023-07-31T14:32:46;12.15;;;6.55;;
62572;SDS011;48626;51.678;5.806;2023-07-31T14:35:12;14.88;;;6.85;;
62572;SDS011;48626;51.678;5.806;2023-07-31T14:37:42;15.95;;;6.45;;
62572;SDS011;48626;51.678;5.806;2023-07-31T14:40:10;13.63;;;5.78;;
62572;SDS011;48626;51.678;5.806;2023-07-31T14:42:37;13.30;;;6.47;;
62572;SDS011;48626;51.678;5.806;2023-07-31T14:45:03;12.52;;;6.53;;
62572;SDS011;48626;51.678;5.806;2023-07-31T14:47:30;12.50;;;5.90;;
62572;SDS011;48626;51.678;5.806;2023-07-31T14:49:58;12.93;;;6.85;;
62572;SDS011;48626;51.678;5.806;2023-07-31T14:52:25;10.35;;;6.13;;
62572;SDS011;48626;51.678;5.806;2023-07-31T14:54:51;12.45;;;6.28;;
62572;SDS011;48626;51.678;5.806;2023-07-31T14:57:17;13.27;;;6.30;;
62572;SDS011;48626;51.678;5.806;2023-07-31T14:59:43;13.77;;;6.97;;
62572;SDS011;48626;51.678;5.806;2023-07-31T15:02:09;15.95;;;6.53;;
62572;SDS011;48626;51.678;5.806;2023-07-31T15:04:35;14.50;;;6.60;;
62572;SDS011;48626;51.678;5.806;2023-07-31T15:07:01;12.57;;;6.22;;
62572;SDS011;48626;51.678;5.806;2023-07-31T15:09:27;15.68;;;6.88;;
62572;SDS011;48626;51.678;5.806;2023-07-31T15:11:53;16.13;;;6.63;;
62572;SDS011;48626;51.678;5.806;2023-07-31T15:14:19;10.80;;;6.40;;
62572;SDS011;48626;51.678;5.806;2023-07-31T15:16:45;14.07;;;6.97;;
62572;SDS011;48626;51.678;5.806;2023-07-31T15:19:11;18.52;;;6.82;;
62572;SDS011;48626;51.678;5.806;2023-07-31T15:21:37;18.38;;;6.45;;
62572;SDS011;48626;51.678;5.806;2023-07-31T15:24:03;11.82;;;5.82;;
62572;SDS011;48626;51.678;5.806;2023-07-31T15:26:28;10.40;;;5.05;;
62572;SDS011;48626;51.678;5.806;2023-07-31T15:29:01;11.93;;;5.45;;
62572;SDS011;48626;51.678;5.806;2023-07-31T15:31:34;9.65;;;4.32;;